createdAt,value
2022-10-31T00:00:35.970Z,12.08
2022-10-31T00:01:35.959Z,12.09
2022-10-31T00:02:35.997Z,12.09
2022-10-31T00:03:35.910Z,12.08
2022-10-31T00:04:35.891Z,12.08
2022-10-31T00:05:35.898Z,12.08
2022-10-31T00:06:35.870Z,12.06
2022-10-31T00:07:35.865Z,12.04
2022-10-31T00:08:35.859Z,12.01
2022-10-31T00:09:35.850Z,12.01
2022-10-31T00:10:35.839Z,12.01
2022-10-31T00:11:35.821Z,11.97
2022-10-31T00:12:35.816Z,12.01
2022-10-31T00:13:35.805Z,11.97
2022-10-31T00:14:35.786Z,11.99
2022-10-31T00:15:35.781Z,11.97
2022-10-31T00:16:35.772Z,11.97
2022-10-31T00:17:35.745Z,11.97
2022-10-31T00:18:35.733Z,11.97
2022-10-31T00:19:35.784Z,11.96
2022-10-31T00:20:35.732Z,11.96
2022-10-31T00:21:35.711Z,11.96
2022-10-31T00:22:35.700Z,11.96
2022-10-31T00:23:35.679Z,11.97
2022-10-31T00:24:35.660Z,11.97
2022-10-31T00:25:35.655Z,11.97
2022-10-31T00:26:35.641Z,11.97
2022-10-31T00:27:35.642Z,11.97
2022-10-31T00:28:35.621Z,11.94
2022-10-31T00:29:35.607Z,11.93
2022-10-31T00:30:35.603Z,11.94
2022-10-31T00:31:35.611Z,11.94
2022-10-31T00:32:35.577Z,11.93
2022-10-31T00:33:35.561Z,11.93
2022-10-31T00:34:35.543Z,11.90
2022-10-31T00:35:35.549Z,11.90
2022-10-31T00:36:35.523Z,11.87
2022-10-31T00:37:35.527Z,11.87
2022-10-31T00:38:35.509Z,11.85
2022-10-31T00:39:35.499Z,11.85
2022-10-31T00:40:35.484Z,11.85
2022-10-31T00:41:35.471Z,11.83
2022-10-31T00:42:35.475Z,11.83
2022-10-31T00:43:35.456Z,11.85
2022-10-31T00:44:35.457Z,11.83
2022-10-31T00:45:35.426Z,11.82
2022-10-31T00:46:35.416Z,11.83
2022-10-31T00:47:35.413Z,11.82
2022-10-31T00:48:35.388Z,11.82
2022-10-31T00:49:35.398Z,11.82
2022-10-31T00:50:35.375Z,11.82
2022-10-31T00:51:35.358Z,11.80
2022-10-31T00:52:35.343Z,11.78
2022-10-31T00:53:35.343Z,11.77
2022-10-31T00:54:35.354Z,11.75
2022-10-31T00:55:35.325Z,11.74
2022-10-31T00:56:35.303Z,11.72
2022-10-31T00:57:35.288Z,11.71
2022-10-31T00:58:35.288Z,11.70
2022-10-31T00:59:35.290Z,11.70
2022-10-31T01:00:35.261Z,11.67
2022-10-31T01:01:35.370Z,11.67
2022-10-31T01:02:35.407Z,11.67
2022-10-31T01:03:35.220Z,11.64
2022-10-31T01:04:35.222Z,11.62
2022-10-31T01:05:35.215Z,11.57
2022-10-31T01:06:35.202Z,11.59
2022-10-31T01:07:35.184Z,11.57
2022-10-31T01:08:35.163Z,11.54
2022-10-31T01:09:35.163Z,11.54
2022-10-31T01:10:35.170Z,11.54
2022-10-31T01:11:35.146Z,11.54
2022-10-31T01:12:35.113Z,11.54
2022-10-31T01:13:35.120Z,11.50
2022-10-31T01:14:35.094Z,11.47
2022-10-31T01:15:35.091Z,11.46
2022-10-31T01:16:35.106Z,11.41
2022-10-31T01:17:35.067Z,11.41
2022-10-31T01:18:35.060Z,11.41
2022-10-31T01:19:35.057Z,11.41
2022-10-31T01:20:35.034Z,11.41
2022-10-31T01:21:35.015Z,11.41
2022-10-31T01:22:35.067Z,11.39
2022-10-31T01:23:35.021Z,11.38
2022-10-31T01:24:34.996Z,11.36
2022-10-31T01:25:34.968Z,11.36
2022-10-31T01:26:34.978Z,11.36
2022-10-31T01:27:34.951Z,11.34
2022-10-31T01:28:34.939Z,11.32
2022-10-31T01:29:34.940Z,11.32
2022-10-31T01:30:34.910Z,11.31
2022-10-31T01:31:34.939Z,11.32
2022-10-31T01:32:34.943Z,11.32
2022-10-31T01:33:34.891Z,11.32
2022-10-31T01:34:34.881Z,11.34
2022-10-31T01:35:34.872Z,11.34
2022-10-31T01:36:34.869Z,11.32
2022-10-31T01:37:34.842Z,11.31
2022-10-31T01:38:34.823Z,11.29
2022-10-31T01:39:34.822Z,11.29
2022-10-31T01:40:34.808Z,11.28
2022-10-31T01:41:34.807Z,11.28
2022-10-31T01:42:35.731Z,11.28
2022-10-31T01:43:35.726Z,11.27
2022-10-31T01:44:35.719Z,11.25
2022-10-31T01:45:34.753Z,11.21
2022-10-31T01:46:34.735Z,11.24
2022-10-31T01:47:34.729Z,11.21
2022-10-31T01:48:34.708Z,11.21
2022-10-31T01:49:34.715Z,11.20
2022-10-31T01:50:34.693Z,11.19
2022-10-31T01:51:34.698Z,11.16
2022-10-31T01:52:34.665Z,11.13
2022-10-31T01:53:34.660Z,11.13
2022-10-31T01:54:34.660Z,11.11
2022-10-31T01:55:34.665Z,11.13
2022-10-31T01:56:34.623Z,11.11
2022-10-31T01:57:34.613Z,11.11
2022-10-31T01:58:34.600Z,11.11
2022-10-31T01:59:34.589Z,11.13
2022-10-31T02:00:34.590Z,11.17
2022-10-31T02:01:34.642Z,11.17
2022-10-31T02:02:34.759Z,11.17
2022-10-31T02:03:34.546Z,11.17
2022-10-31T02:04:34.520Z,11.20
2022-10-31T02:05:34.530Z,11.19
2022-10-31T02:06:34.504Z,11.21
2022-10-31T02:07:34.492Z,11.19
2022-10-31T02:08:34.482Z,11.19
2022-10-31T02:09:34.486Z,11.17
2022-10-31T02:10:34.492Z,11.17
2022-10-31T02:11:34.462Z,11.19
2022-10-31T02:12:34.443Z,11.19
2022-10-31T02:13:34.436Z,11.17
2022-10-31T02:14:34.414Z,11.17
2022-10-31T02:15:34.444Z,11.19
2022-10-31T02:16:34.399Z,11.17
2022-10-31T02:17:34.384Z,11.16
2022-10-31T02:18:34.376Z,11.16
2022-10-31T02:19:34.364Z,11.14
2022-10-31T02:20:34.357Z,11.13
2022-10-31T02:21:34.357Z,11.14
2022-10-31T02:22:34.332Z,11.13
2022-10-31T02:23:34.322Z,11.14
2022-10-31T02:24:34.297Z,11.10
2022-10-31T02:25:34.313Z,11.13
2022-10-31T02:26:34.320Z,11.10
2022-10-31T02:27:34.279Z,11.10
2022-10-31T02:28:34.255Z,11.09
2022-10-31T02:29:34.262Z,11.07
2022-10-31T02:30:34.239Z,11.03
2022-10-31T02:31:34.240Z,11.07
2022-10-31T02:32:34.240Z,11.07
2022-10-31T02:33:34.210Z,11.06
2022-10-31T02:34:34.215Z,11.06
2022-10-31T02:35:34.206Z,11.06
2022-10-31T02:36:34.193Z,11.06
2022-10-31T02:37:34.162Z,11.02
2022-10-31T02:38:34.170Z,11.03
2022-10-31T02:39:34.162Z,11.02
2022-10-31T02:40:34.154Z,11.03
2022-10-31T02:41:34.140Z,11.03
2022-10-31T02:42:35.072Z,11.07
2022-10-31T02:43:34.122Z,11.07
2022-10-31T02:44:34.108Z,11.09
2022-10-31T02:45:34.077Z,11.09
2022-10-31T02:46:34.063Z,11.07
2022-10-31T02:47:34.054Z,11.09
2022-10-31T02:48:34.045Z,11.07
2022-10-31T02:49:34.046Z,11.09
2022-10-31T02:50:34.015Z,11.10
2022-10-31T02:51:34.019Z,11.13
2022-10-31T02:52:33.996Z,11.13
2022-10-31T02:53:34.011Z,11.13
2022-10-31T02:54:33.987Z,11.16
2022-10-31T02:55:33.971Z,11.16
2022-10-31T02:56:33.966Z,11.16
2022-10-31T02:57:33.949Z,11.17
2022-10-31T02:58:33.937Z,11.20
2022-10-31T02:59:33.930Z,11.19
2022-10-31T03:00:33.934Z,11.20
2022-10-31T03:01:34.111Z,11.20
2022-10-31T03:02:34.059Z,11.20
2022-10-31T03:03:33.898Z,11.20
2022-10-31T03:04:33.893Z,11.20
2022-10-31T03:05:33.873Z,11.20
2022-10-31T03:06:33.840Z,11.21
2022-10-31T03:07:33.870Z,11.21
2022-10-31T03:08:33.819Z,11.21
2022-10-31T03:09:33.842Z,11.25
2022-10-31T03:10:33.800Z,11.24
2022-10-31T03:11:33.788Z,11.25
2022-10-31T03:12:33.793Z,11.24
2022-10-31T03:13:33.775Z,11.25
2022-10-31T03:14:33.753Z,11.25
2022-10-31T03:15:33.762Z,11.25
2022-10-31T03:16:33.733Z,11.25
2022-10-31T03:17:33.714Z,11.25
2022-10-31T03:18:33.702Z,11.24
2022-10-31T03:19:33.730Z,11.24
2022-10-31T03:20:33.687Z,11.24
2022-10-31T03:21:33.683Z,11.24
2022-10-31T03:22:33.656Z,11.24
2022-10-31T03:23:33.676Z,11.21
2022-10-31T03:24:33.636Z,11.20
2022-10-31T03:25:33.652Z,11.17
2022-10-31T03:26:33.613Z,11.11
2022-10-31T03:27:33.608Z,11.09
2022-10-31T03:28:33.617Z,11.06
2022-10-31T03:29:33.600Z,11.03
2022-10-31T03:30:33.576Z,11.03
2022-10-31T03:31:33.575Z,11.03
2022-10-31T03:32:33.550Z,11.06
2022-10-31T03:33:33.558Z,11.06
2022-10-31T03:34:33.567Z,11.06
2022-10-31T03:35:33.549Z,11.06
2022-10-31T03:36:34.464Z,11.06
2022-10-31T03:37:33.503Z,11.06
2022-10-31T03:38:33.489Z,11.06
2022-10-31T03:39:33.494Z,11.06
2022-10-31T03:40:33.461Z,11.06
2022-10-31T03:41:33.464Z,11.02
2022-10-31T03:42:33.448Z,11.01
2022-10-31T03:43:33.432Z,11.01
2022-10-31T03:44:33.429Z,10.99
2022-10-31T03:45:33.426Z,10.99
2022-10-31T03:46:33.391Z,11.01
2022-10-31T03:47:33.395Z,11.01
2022-10-31T03:48:33.379Z,10.99
2022-10-31T03:49:33.367Z,10.98
2022-10-31T03:50:33.370Z,10.99
2022-10-31T03:51:34.292Z,10.98
2022-10-31T03:52:33.339Z,10.98
2022-10-31T03:53:33.322Z,10.98
2022-10-31T03:54:33.305Z,10.96
2022-10-31T03:55:33.316Z,10.96
2022-10-31T03:56:33.283Z,10.95
2022-10-31T03:57:33.278Z,10.95
2022-10-31T03:58:33.264Z,10.94
2022-10-31T03:59:33.248Z,10.92
2022-10-31T04:00:33.267Z,10.91
2022-10-31T04:01:33.342Z,10.88
2022-10-31T04:02:33.505Z,10.84
2022-10-31T04:03:33.205Z,10.84
2022-10-31T04:04:33.197Z,10.83
2022-10-31T04:05:33.370Z,10.84
2022-10-31T04:06:33.186Z,10.83
2022-10-31T04:07:33.169Z,10.81
2022-10-31T04:08:33.168Z,10.81
2022-10-31T04:09:33.144Z,10.81
2022-10-31T04:10:33.459Z,10.80
2022-10-31T04:11:33.152Z,10.80
2022-10-31T04:12:33.114Z,10.78
2022-10-31T04:13:33.090Z,10.77
2022-10-31T04:14:33.085Z,10.80
2022-10-31T04:15:33.085Z,10.77
2022-10-31T04:16:33.062Z,10.76
2022-10-31T04:17:33.073Z,10.77
2022-10-31T04:18:33.045Z,10.76
2022-10-31T04:19:33.024Z,10.74
2022-10-31T04:20:33.024Z,10.74
2022-10-31T04:21:33.019Z,10.77
2022-10-31T04:22:33.000Z,10.76
2022-10-31T04:23:32.974Z,10.77
2022-10-31T04:24:32.977Z,10.78
2022-10-31T04:25:32.965Z,10.78
2022-10-31T04:26:32.955Z,10.78
2022-10-31T04:27:33.121Z,10.77
2022-10-31T04:28:32.972Z,10.76
2022-10-31T04:29:32.907Z,10.77
2022-10-31T04:30:32.931Z,10.77
2022-10-31T04:31:32.896Z,10.76
2022-10-31T04:32:32.882Z,10.76
2022-10-31T04:33:32.865Z,10.74
2022-10-31T04:34:32.862Z,10.73
2022-10-31T04:35:32.848Z,10.71
2022-10-31T04:36:32.855Z,10.70
2022-10-31T04:37:32.823Z,10.71
2022-10-31T04:38:32.817Z,10.71
2022-10-31T04:39:33.761Z,10.68
2022-10-31T04:40:32.800Z,10.68
2022-10-31T04:41:32.800Z,10.66
2022-10-31T04:42:32.777Z,10.68
2022-10-31T04:43:32.750Z,10.68
2022-10-31T04:44:32.745Z,10.65
2022-10-31T04:45:32.738Z,10.65
2022-10-31T04:46:32.741Z,10.63
2022-10-31T04:47:32.716Z,10.60
2022-10-31T04:48:32.691Z,10.58
2022-10-31T04:49:32.695Z,10.55
2022-10-31T04:50:32.673Z,10.52
2022-10-31T04:51:32.684Z,10.52
2022-10-31T04:52:32.659Z,10.53
2022-10-31T04:53:32.648Z,10.56
2022-10-31T04:54:32.657Z,10.56
2022-10-31T04:55:32.626Z,10.59
2022-10-31T04:56:32.613Z,10.59
2022-10-31T04:57:33.549Z,10.62
2022-10-31T04:58:32.601Z,10.62
2022-10-31T04:59:32.587Z,10.66
2022-10-31T05:00:32.583Z,10.70
2022-10-31T05:01:32.725Z,10.73
2022-10-31T05:02:32.644Z,10.73
2022-10-31T05:03:32.550Z,10.74
2022-10-31T05:04:32.550Z,10.77
2022-10-31T05:05:32.534Z,10.80
2022-10-31T05:06:32.527Z,10.81
2022-10-31T05:07:32.488Z,10.86
2022-10-31T05:08:32.491Z,10.88
2022-10-31T05:09:32.460Z,10.91
2022-10-31T05:10:32.458Z,10.89
2022-10-31T05:11:32.455Z,10.91
2022-10-31T05:12:32.429Z,10.94
2022-10-31T05:13:32.414Z,10.94
2022-10-31T05:14:32.409Z,10.95
2022-10-31T05:15:32.407Z,10.98
2022-10-31T05:16:32.397Z,10.98
2022-10-31T05:17:32.369Z,11.01
2022-10-31T05:18:32.376Z,11.01
2022-10-31T05:19:32.341Z,11.02
2022-10-31T05:20:32.351Z,11.01
2022-10-31T05:21:32.354Z,11.01
2022-10-31T05:22:32.313Z,11.02
2022-10-31T05:23:32.305Z,11.01
2022-10-31T05:24:32.308Z,11.02
2022-10-31T05:25:32.290Z,11.02
2022-10-31T05:26:32.297Z,11.02
2022-10-31T05:27:32.264Z,11.03
2022-10-31T05:28:32.248Z,11.01
2022-10-31T05:29:32.235Z,10.99
2022-10-31T05:30:32.225Z,11.01
2022-10-31T05:31:32.244Z,10.98
2022-10-31T05:32:32.216Z,10.98
2022-10-31T05:33:32.188Z,10.98
2022-10-31T05:34:32.185Z,10.96
2022-10-31T05:35:32.162Z,10.96
2022-10-31T05:36:32.154Z,10.96
2022-10-31T05:37:32.148Z,10.96
2022-10-31T05:38:32.142Z,10.95
2022-10-31T05:39:33.102Z,10.95
2022-10-31T05:40:32.138Z,10.94
2022-10-31T05:41:32.092Z,10.94
2022-10-31T05:42:32.103Z,10.94
2022-10-31T05:43:32.078Z,10.92
2022-10-31T05:44:32.078Z,10.91
2022-10-31T05:45:32.080Z,10.91
2022-10-31T05:46:32.053Z,10.91
2022-10-31T05:47:32.037Z,10.89
2022-10-31T05:48:32.028Z,10.88
2022-10-31T05:49:32.003Z,10.86
2022-10-31T05:50:32.018Z,10.83
2022-10-31T05:51:31.984Z,10.81
2022-10-31T05:52:31.991Z,10.78
2022-10-31T05:53:31.963Z,10.78
2022-10-31T05:54:31.961Z,10.77
2022-10-31T05:55:31.957Z,10.76
2022-10-31T05:56:31.931Z,10.74
2022-10-31T05:57:31.943Z,10.73
2022-10-31T05:58:31.910Z,10.71
2022-10-31T05:59:31.962Z,10.71
2022-10-31T06:00:31.908Z,10.71
2022-10-31T06:01:31.955Z,10.71
2022-10-31T06:02:31.869Z,10.70
2022-10-31T06:03:31.875Z,10.68
2022-10-31T06:04:31.920Z,10.65
2022-10-31T06:05:31.827Z,10.59
2022-10-31T06:06:31.867Z,10.43
2022-10-31T06:07:31.813Z,10.34
2022-10-31T06:08:31.801Z,10.32
2022-10-31T06:09:32.730Z,10.30
2022-10-31T06:10:31.779Z,10.34
2022-10-31T06:11:31.780Z,10.34
2022-10-31T06:12:31.749Z,10.36
2022-10-31T06:13:31.761Z,10.39
2022-10-31T06:14:31.749Z,10.40
2022-10-31T06:15:31.726Z,10.42
2022-10-31T06:16:31.711Z,10.44
2022-10-31T06:17:31.746Z,10.44
2022-10-31T06:18:31.700Z,10.44
2022-10-31T06:19:31.707Z,10.44
2022-10-31T06:20:31.675Z,10.44
2022-10-31T06:21:31.655Z,10.47
2022-10-31T06:22:31.641Z,10.47
2022-10-31T06:23:31.645Z,10.44
2022-10-31T06:24:31.631Z,10.44
2022-10-31T06:25:31.611Z,10.43
2022-10-31T06:26:31.608Z,10.46
2022-10-31T06:27:31.581Z,10.46
2022-10-31T06:28:32.516Z,10.43
2022-10-31T06:29:31.574Z,10.44
2022-10-31T06:30:31.568Z,10.47
2022-10-31T06:31:31.535Z,10.47
2022-10-31T06:32:31.555Z,10.47
2022-10-31T06:33:31.513Z,10.51
2022-10-31T06:34:31.496Z,10.51
2022-10-31T06:35:31.492Z,10.52
2022-10-31T06:36:31.490Z,10.52
2022-10-31T06:37:31.475Z,10.51
2022-10-31T06:38:31.470Z,10.52
2022-10-31T06:39:31.444Z,10.55
2022-10-31T06:40:31.459Z,10.55
2022-10-31T06:41:31.421Z,10.56
2022-10-31T06:42:31.416Z,10.59
2022-10-31T06:43:31.397Z,10.60
2022-10-31T06:44:31.389Z,10.62
2022-10-31T06:45:31.408Z,10.62
2022-10-31T06:46:31.400Z,10.62
2022-10-31T06:47:31.357Z,10.63
2022-10-31T06:48:31.360Z,10.65
2022-10-31T06:49:31.356Z,10.71
2022-10-31T06:50:31.334Z,10.73
2022-10-31T06:51:31.340Z,10.71
2022-10-31T06:52:31.339Z,10.74
2022-10-31T06:53:31.290Z,10.74
2022-10-31T06:54:31.280Z,10.76
2022-10-31T06:55:31.271Z,10.78
2022-10-31T06:56:31.252Z,10.77
2022-10-31T06:57:31.268Z,10.77
2022-10-31T06:58:31.241Z,10.81
2022-10-31T06:59:31.211Z,10.81
2022-10-31T07:00:31.242Z,10.84
2022-10-31T07:01:31.343Z,10.81
2022-10-31T07:02:31.221Z,10.84
2022-10-31T07:03:31.186Z,10.89
2022-10-31T07:04:31.180Z,10.91
2022-10-31T07:05:31.179Z,10.94
2022-10-31T07:06:31.144Z,10.96
2022-10-31T07:07:31.142Z,10.99
2022-10-31T07:08:31.135Z,11.02
2022-10-31T07:09:31.150Z,11.02
2022-10-31T07:10:33.166Z,11.03
2022-10-31T07:11:31.082Z,11.06
2022-10-31T07:12:31.080Z,11.07
2022-10-31T07:13:31.080Z,11.10
2022-10-31T07:14:31.073Z,11.13
2022-10-31T07:15:31.086Z,11.14
2022-10-31T07:16:31.031Z,11.16
2022-10-31T07:17:31.015Z,11.19
2022-10-31T07:18:31.031Z,11.17
2022-10-31T07:19:30.992Z,11.19
2022-10-31T07:20:30.980Z,11.19
2022-10-31T07:21:30.977Z,11.19
2022-10-31T07:22:30.965Z,11.21
2022-10-31T07:23:30.963Z,11.21
2022-10-31T07:24:30.951Z,11.24
2022-10-31T07:25:30.928Z,11.25
2022-10-31T07:26:30.912Z,11.27
2022-10-31T07:27:30.913Z,11.28
2022-10-31T07:28:30.906Z,11.29
2022-10-31T07:29:30.880Z,11.32
2022-10-31T07:30:30.874Z,11.34
2022-10-31T07:31:30.860Z,11.39
2022-10-31T07:32:30.863Z,11.43
2022-10-31T07:33:30.833Z,11.46
2022-10-31T07:34:30.837Z,11.49
2022-10-31T07:35:30.837Z,11.52
2022-10-31T07:36:30.798Z,11.52
2022-10-31T07:37:30.795Z,11.56
2022-10-31T07:38:30.783Z,11.57
2022-10-31T07:39:31.723Z,11.56
2022-10-31T07:40:30.766Z,11.59
2022-10-31T07:41:30.735Z,11.61
2022-10-31T07:42:30.747Z,11.64
2022-10-31T07:43:30.723Z,11.68
2022-10-31T07:44:30.714Z,11.70
2022-10-31T07:45:30.718Z,11.72
2022-10-31T07:46:30.706Z,11.74
2022-10-31T07:47:30.668Z,11.77
2022-10-31T07:48:30.669Z,11.80
2022-10-31T07:49:30.649Z,11.78
2022-10-31T07:50:30.679Z,11.83
2022-10-31T07:51:30.628Z,11.86
2022-10-31T07:52:30.614Z,11.89
2022-10-31T07:53:30.636Z,11.93
2022-10-31T07:54:30.590Z,11.96
2022-10-31T07:55:31.550Z,11.99
2022-10-31T07:56:30.613Z,12.01
2022-10-31T07:57:34.416Z,12.02
2022-10-31T07:58:30.582Z,12.06
2022-10-31T07:59:30.550Z,12.09
2022-10-31T08:00:30.634Z,12.11
2022-10-31T08:01:30.525Z,12.13
2022-10-31T08:02:30.501Z,12.16
2022-10-31T08:03:30.520Z,12.23
2022-10-31T08:04:30.492Z,12.27
2022-10-31T08:05:30.489Z,12.30
2022-10-31T08:06:30.465Z,12.31
2022-10-31T08:07:30.518Z,12.29
2022-10-31T08:08:32.354Z,12.30
2022-10-31T08:09:31.438Z,12.34
2022-10-31T08:10:30.415Z,12.38
2022-10-31T08:11:30.412Z,12.42
2022-10-31T08:12:30.414Z,12.41
2022-10-31T08:13:30.399Z,12.42
2022-10-31T08:14:30.393Z,12.45
2022-10-31T08:15:30.370Z,12.46
2022-10-31T08:16:30.345Z,12.46
2022-10-31T08:17:30.345Z,12.44
2022-10-31T08:18:30.367Z,12.45
2022-10-31T08:19:30.319Z,12.46
2022-10-31T08:20:30.300Z,12.45
2022-10-31T08:21:30.289Z,12.51
2022-10-31T08:22:30.277Z,12.51
2022-10-31T08:23:30.284Z,12.56
2022-10-31T08:24:30.277Z,12.60
2022-10-31T08:25:33.708Z,12.57
2022-10-31T08:26:31.249Z,12.54
2022-10-31T08:27:30.226Z,12.52
2022-10-31T08:28:30.205Z,12.52
2022-10-31T08:29:30.212Z,12.56
2022-10-31T08:30:30.188Z,12.59
2022-10-31T08:31:33.802Z,12.63
2022-10-31T08:32:30.162Z,12.66
2022-10-31T08:33:30.190Z,12.69
2022-10-31T08:34:30.143Z,12.70
2022-10-31T08:35:30.143Z,12.69
2022-10-31T08:36:30.133Z,12.69
2022-10-31T08:37:30.123Z,12.71
2022-10-31T08:38:30.095Z,12.77
2022-10-31T08:39:30.096Z,12.81
2022-10-31T08:40:30.093Z,12.87
2022-10-31T08:41:30.144Z,12.89
2022-10-31T08:42:30.064Z,12.88
2022-10-31T08:43:30.052Z,12.89
2022-10-31T08:44:30.026Z,12.93
2022-10-31T08:45:31.008Z,12.99
2022-10-31T08:46:30.020Z,13.06
2022-10-31T08:47:30.000Z,13.09
2022-10-31T08:48:29.989Z,13.12
2022-10-31T08:49:29.991Z,13.17
2022-10-31T08:50:29.964Z,13.20
2022-10-31T08:51:29.958Z,13.21
2022-10-31T08:52:58.806Z,13.25
2022-10-31T08:53:30.933Z,13.29
2022-10-31T08:54:29.940Z,13.32
2022-10-31T08:55:29.907Z,13.32
2022-10-31T08:56:29.898Z,13.33
2022-10-31T08:57:29.898Z,13.38
2022-10-31T08:58:29.879Z,13.41
2022-10-31T08:59:29.883Z,13.41
2022-10-31T09:00:29.963Z,13.38
2022-10-31T09:01:29.971Z,13.43
2022-10-31T09:02:29.830Z,13.44
2022-10-31T09:03:29.832Z,13.49
2022-10-31T09:04:29.800Z,13.52
2022-10-31T09:05:29.926Z,13.56
2022-10-31T09:06:29.843Z,13.59
2022-10-31T09:07:29.775Z,13.62
2022-10-31T09:08:29.784Z,13.67
2022-10-31T09:09:29.753Z,13.70
2022-10-31T09:10:29.752Z,13.73
2022-10-31T09:11:29.724Z,13.76
2022-10-31T09:12:29.717Z,13.79
2022-10-31T09:13:29.716Z,13.81
2022-10-31T09:14:29.689Z,13.87
2022-10-31T09:15:29.691Z,13.92
2022-10-31T09:16:29.676Z,13.94
2022-10-31T09:17:29.658Z,13.96
2022-10-31T09:18:29.662Z,13.98
2022-10-31T09:19:29.641Z,13.99
2022-10-31T09:20:29.642Z,14.01
2022-10-31T09:21:29.627Z,14.04
2022-10-31T09:22:29.619Z,14.06
2022-10-31T09:23:29.628Z,14.10
2022-10-31T09:24:29.590Z,14.13
2022-10-31T09:25:29.566Z,14.17
2022-10-31T09:26:29.573Z,14.19
2022-10-31T09:27:29.554Z,14.21
2022-10-31T09:28:29.550Z,14.27
2022-10-31T09:29:29.534Z,14.31
2022-10-31T09:30:29.518Z,14.32
2022-10-31T09:31:29.503Z,14.35
2022-10-31T09:32:29.501Z,14.38
2022-10-31T09:33:29.484Z,14.39
2022-10-31T09:34:29.485Z,14.43
2022-10-31T09:35:29.462Z,14.46
2022-10-31T09:36:29.457Z,14.50
2022-10-31T09:37:29.439Z,14.53
2022-10-31T09:38:29.426Z,14.53
2022-10-31T09:39:29.432Z,14.54
2022-10-31T09:40:29.405Z,14.56
2022-10-31T09:41:29.397Z,14.62
2022-10-31T09:42:29.384Z,14.64
2022-10-31T09:43:29.362Z,14.69
2022-10-31T09:44:29.392Z,14.71
2022-10-31T09:45:29.353Z,14.74
2022-10-31T09:46:29.334Z,14.80
2022-10-31T09:47:29.330Z,14.84
2022-10-31T09:48:29.321Z,14.88
2022-10-31T09:49:29.346Z,14.93
2022-10-31T09:50:29.301Z,14.98
2022-10-31T09:51:29.295Z,15.02
2022-10-31T09:52:29.272Z,15.06
2022-10-31T09:53:29.271Z,15.11
2022-10-31T09:54:29.278Z,15.17
2022-10-31T09:55:29.242Z,15.21
2022-10-31T09:56:29.239Z,15.27
2022-10-31T09:57:29.229Z,15.27
2022-10-31T09:58:29.202Z,15.30
2022-10-31T09:59:29.198Z,15.35
2022-10-31T10:00:29.269Z,15.39
2022-10-31T10:01:29.318Z,15.41
2022-10-31T10:02:29.154Z,15.45
2022-10-31T10:03:29.163Z,15.51
2022-10-31T10:04:29.127Z,15.52
2022-10-31T10:05:29.125Z,15.56
2022-10-31T10:06:29.121Z,15.59
2022-10-31T10:07:29.122Z,15.60
2022-10-31T10:08:29.084Z,15.61
2022-10-31T10:09:29.076Z,15.66
2022-10-31T10:10:29.070Z,15.67
2022-10-31T10:11:29.056Z,15.74
2022-10-31T10:12:29.060Z,15.76
2022-10-31T10:13:29.049Z,15.81
2022-10-31T10:14:29.027Z,15.84
2022-10-31T10:15:29.009Z,15.85
2022-10-31T10:16:29.030Z,15.88
2022-10-31T10:17:28.990Z,15.89
2022-10-31T10:18:28.990Z,15.93
2022-10-31T10:19:28.973Z,15.97
2022-10-31T10:20:28.961Z,16.01
2022-10-31T10:21:28.986Z,16.07
2022-10-31T10:22:29.870Z,16.09
2022-10-31T10:23:29.009Z,16.12
2022-10-31T10:24:28.899Z,16.14
2022-10-31T10:25:28.895Z,16.14
2022-10-31T10:26:28.997Z,16.18
2022-10-31T10:27:28.880Z,16.25
2022-10-31T10:28:28.886Z,16.27
2022-10-31T10:29:28.865Z,16.31
2022-10-31T10:30:28.883Z,16.34
2022-10-31T10:31:28.827Z,16.37
2022-10-31T10:32:28.844Z,16.40
2022-10-31T10:33:28.819Z,16.40
2022-10-31T10:34:28.784Z,16.44
2022-10-31T10:35:28.776Z,16.45
2022-10-31T10:36:28.805Z,16.48
2022-10-31T10:37:28.759Z,16.50
2022-10-31T10:38:28.757Z,16.52
2022-10-31T10:39:28.796Z,16.53
2022-10-31T10:40:28.801Z,16.55
2022-10-31T10:41:34.003Z,16.58
2022-10-31T10:42:29.704Z,16.59
2022-10-31T10:43:28.689Z,16.60
2022-10-31T10:44:28.707Z,16.65
2022-10-31T10:45:28.680Z,16.68
2022-10-31T10:46:28.657Z,16.68
2022-10-31T10:47:28.655Z,16.71
2022-10-31T10:48:28.632Z,16.75
2022-10-31T10:49:28.628Z,16.81
2022-10-31T10:50:29.586Z,16.81
2022-10-31T10:51:38.853Z,16.83
2022-10-31T10:52:49.464Z,16.86
2022-10-31T10:53:29.585Z,16.89
2022-10-31T10:54:28.606Z,16.89
2022-10-31T10:55:28.580Z,16.92
2022-10-31T10:56:28.548Z,16.92
2022-10-31T10:57:28.561Z,16.93
2022-10-31T10:58:28.513Z,17.00
2022-10-31T10:59:28.517Z,17.03
2022-10-31T11:00:28.587Z,17.04
2022-10-31T11:01:28.492Z,17.06
2022-10-31T11:02:28.494Z,17.10
2022-10-31T11:03:28.464Z,17.13
2022-10-31T11:04:28.472Z,17.17
2022-10-31T11:05:28.456Z,17.17
2022-10-31T11:06:28.467Z,17.20
2022-10-31T11:07:28.417Z,17.23
2022-10-31T11:08:28.406Z,17.25
2022-10-31T11:09:28.418Z,17.30
2022-10-31T11:10:28.392Z,17.33
2022-10-31T11:11:28.387Z,17.38
2022-10-31T11:12:28.360Z,17.40
2022-10-31T11:13:28.368Z,17.43
2022-10-31T11:14:28.341Z,17.44
2022-10-31T11:15:28.339Z,17.47
2022-10-31T11:16:28.322Z,17.48
2022-10-31T11:17:28.330Z,17.53
2022-10-31T11:18:28.343Z,17.53
2022-10-31T11:19:28.283Z,17.53
2022-10-31T11:20:28.285Z,17.57
2022-10-31T11:21:28.283Z,17.63
2022-10-31T11:22:28.267Z,17.63
2022-10-31T11:23:28.254Z,17.66
2022-10-31T11:24:28.235Z,17.69
2022-10-31T11:25:28.213Z,17.71
2022-10-31T11:26:28.223Z,17.70
2022-10-31T11:27:28.205Z,17.74
2022-10-31T11:28:28.201Z,17.76
2022-10-31T11:29:28.179Z,17.79
2022-10-31T11:30:28.176Z,17.81
2022-10-31T11:31:28.169Z,17.84
2022-10-31T11:32:28.150Z,17.87
2022-10-31T11:33:28.165Z,17.89
2022-10-31T11:34:28.168Z,17.94
2022-10-31T11:35:28.167Z,17.92
2022-10-31T11:36:28.121Z,17.94
2022-10-31T11:37:28.078Z,17.95
2022-10-31T11:38:28.078Z,17.99
2022-10-31T11:39:28.101Z,18.02
2022-10-31T11:40:28.047Z,18.04
2022-10-31T11:41:28.039Z,18.06
2022-10-31T11:42:28.031Z,18.09
2022-10-31T11:43:28.019Z,18.12
2022-10-31T11:44:28.028Z,18.12
2022-10-31T11:45:28.020Z,18.12
2022-10-31T11:46:28.005Z,18.12
2022-10-31T11:47:27.961Z,18.12
2022-10-31T11:48:27.961Z,18.10
2022-10-31T11:49:27.944Z,18.10
2022-10-31T11:50:27.931Z,18.17
2022-10-31T11:51:27.927Z,18.18
2022-10-31T11:52:27.922Z,18.21
2022-10-31T11:53:28.291Z,18.24
2022-10-31T11:54:27.883Z,18.24
2022-10-31T11:55:27.880Z,18.25
2022-10-31T11:56:28.831Z,18.24
2022-10-31T11:57:27.867Z,18.25
2022-10-31T11:58:27.847Z,18.27
2022-10-31T11:59:27.847Z,18.28
2022-10-31T12:01:27.877Z,18.27
2022-10-31T12:02:27.878Z,18.24
2022-10-31T12:03:27.787Z,18.27
2022-10-31T12:04:27.777Z,18.25
2022-10-31T12:05:27.795Z,18.25
2022-10-31T12:06:27.753Z,18.25
2022-10-31T12:07:27.746Z,18.27
2022-10-31T12:08:27.731Z,18.27
2022-10-31T12:09:27.747Z,18.25
2022-10-31T12:10:27.721Z,18.27
2022-10-31T12:11:27.697Z,18.28
2022-10-31T12:12:27.700Z,18.29
2022-10-31T12:13:27.674Z,18.31
2022-10-31T12:14:27.662Z,18.36
2022-10-31T12:15:27.667Z,18.36
2022-10-31T12:16:27.633Z,18.34
2022-10-31T12:17:27.654Z,18.34
2022-10-31T12:18:27.631Z,18.34
2022-10-31T12:19:27.604Z,18.36
2022-10-31T12:20:27.615Z,18.39
2022-10-31T12:21:27.591Z,18.42
2022-10-31T12:22:27.602Z,18.44
2022-10-31T12:23:27.581Z,18.44
2022-10-31T12:24:27.558Z,18.47
2022-10-31T12:25:27.546Z,18.47
2022-10-31T12:26:27.544Z,18.47
2022-10-31T12:27:27.540Z,18.46
2022-10-31T12:28:27.515Z,18.47
2022-10-31T12:29:28.478Z,18.50
2022-10-31T12:30:27.498Z,18.49
2022-10-31T12:31:27.480Z,18.50
2022-10-31T12:32:27.498Z,18.52
2022-10-31T12:33:27.470Z,18.52
2022-10-31T12:34:27.453Z,18.55
2022-10-31T12:35:27.467Z,18.55
2022-10-31T12:36:27.420Z,18.55
2022-10-31T12:37:27.411Z,18.54
2022-10-31T12:38:27.409Z,18.54
2022-10-31T12:39:27.385Z,18.50
2022-10-31T12:40:27.384Z,18.50
2022-10-31T12:41:27.365Z,18.49
2022-10-31T12:42:27.360Z,18.50
2022-10-31T12:43:27.354Z,18.54
2022-10-31T12:44:27.342Z,18.55
2022-10-31T12:45:27.329Z,18.57
2022-10-31T12:46:27.307Z,18.58
2022-10-31T12:47:27.303Z,18.58
2022-10-31T12:48:27.296Z,18.58
2022-10-31T12:49:27.270Z,18.59
2022-10-31T12:50:27.259Z,18.61
2022-10-31T12:51:27.251Z,18.59
2022-10-31T12:52:27.247Z,18.61
2022-10-31T12:53:27.256Z,18.62